Time;durP1;ratioP1;P1;durP2;ratioP2;P2;SDS_P1;SDS_P2;PMS_P1;PMS_P2;Temp;Humidity;BMP_temperature;BMP_pressure;BME280_temperature;BME280_humidity;BME280_pressure;Samples;Min_cycle;Max_cycle;Signal;HPM_P1;HPM_P2
2021/05/13 00:00:12;;;;;;;15.35;11.80;;;;;;;;;;1488811;39;20111;-58
2021/05/13 00:01:13;;;;;;;15.52;11.13;;;;;;;;;;1488906;39;20024;-58
2021/05/13 00:02:14;;;;;;;19.38;11.18;;;;;;;;;;1488801;39;20040;-58
2021/05/13 00:03:15;;;;;;;16.67;11.27;;;;;;;;;;1488457;39;20296;-59
2021/05/13 00:04:17;;;;;;;16.42;12.18;;;;;;;;;;1488516;39;20393;-58
2021/05/13 00:05:19;;;;;;;14.23;10.57;;;;;;;;;;1488756;39;20032;-58
2021/05/13 00:06:21;;;;;;;16.55;11.65;;;;;;;;;;1488909;39;20036;-58
2021/05/13 00:07:22;;;;;;;17.65;12.07;;;;;;;;;;1488903;39;20028;-58
2021/05/13 00:08:23;;;;;;;15.55;11.25;;;;;;;;;;1488701;39;20028;-58
2021/05/13 00:09:25;;;;;;;14.90;11.02;;;;;;;;;;1488310;39;20109;-58
2021/05/13 00:10:28;;;;;;;16.50;11.55;;;;;;;;;;1488390;40;20127;-58
2021/05/13 00:11:31;;;;;;;14.57;10.93;;;;;;;;;;1488892;39;20032;-58
2021/05/13 00:12:40;;;;;;;15.20;10.63;;;;;;;;;;1488919;39;20028;-58
2021/05/13 00:13:41;;;;;;;14.43;10.75;;;;;;;;;;1488731;39;20082;-58
2021/05/13 00:14:42;;;;;;;16.00;11.02;;;;;;;;;;1488858;39;20113;-58
2021/05/13 00:15:44;;;;;;;18.13;12.68;;;;;;;;;;1488897;39;20105;-58
2021/05/13 00:16:45;;;;;;;15.15;10.98;;;;;;;;;;1488919;39;20032;-58
2021/05/13 00:17:47;;;;;;;16.75;11.65;;;;;;;;;;1488703;39;20055;-58
2021/05/13 00:18:48;;;;;;;18.52;12.32;;;;;;;;;;1488757;39;20043;-60
2021/05/13 00:19:49;;;;;;;15.52;12.02;;;;;;;;;;1488791;39;20058;-58
2021/05/13 00:20:50;;;;;;;14.85;10.93;;;;;;;;;;1488963;39;20032;-58
2021/05/13 00:21:51;;;;;;;18.73;11.77;;;;;;;;;;1488897;39;20036;-58
2021/05/13 00:22:53;;;;;;;16.17;12.40;;;;;;;;;;1488975;39;20036;-60
2021/05/13 00:23:54;;;;;;;16.98;12.23;;;;;;;;;;1488914;39;20036;-60
2021/05/13 00:24:59;;;;;;;17.77;12.70;;;;;;;;;;1488770;39;20350;-61
2021/05/13 00:26:00;;;;;;;17.77;12.18;;;;;;;;;;1489147;39;20038;-60
2021/05/13 00:27:02;;;;;;;17.63;11.73;;;;;;;;;;1488999;39;20031;-60
2021/05/13 00:28:05;;;;;;;15.80;11.27;;;;;;;;;;1488613;39;20476;-61
2021/05/13 00:29:07;;;;;;;15.75;11.20;;;;;;;;;;1488750;39;20024;-61
2021/05/13 00:30:09;;;;;;;14.75;11.07;;;;;;;;;;1488781;39;20399;-60
2021/05/13 00:31:10;;;;;;;15.93;11.55;;;;;;;;;;1488845;39;20035;-61
2021/05/13 00:32:11;;;;;;;18.35;11.57;;;;;;;;;;1488679;39;20303;-61
2021/05/13 00:33:12;;;;;;;15.20;11.52;;;;;;;;;;1488882;39;20109;-61
2021/05/13 00:34:14;;;;;;;16.38;11.80;;;;;;;;;;1488751;39;20036;-61
2021/05/13 00:35:17;;;;;;;19.70;12.15;;;;;;;;;;1488840;39;20020;-60
2021/05/13 00:36:18;;;;;;;18.15;12.10;;;;;;;;;;1488826;39;20030;-61
2021/05/13 00:37:19;;;;;;;17.90;12.50;;;;;;;;;;1488902;39;20106;-61
2021/05/13 00:38:20;;;;;;;17.33;11.98;;;;;;;;;;1488626;39;20118;-60
2021/05/13 00:39:21;;;;;;;18.42;11.98;;;;;;;;;;1488882;39;20033;-60
2021/05/13 00:40:23;;;;;;;17.42;12.32;;;;;;;;;;1488619;39;20465;-61
2021/05/13 00:41:24;;;;;;;16.23;11.93;;;;;;;;;;1488706;39;20136;-60
2021/05/13 00:42:26;;;;;;;17.38;11.70;;;;;;;;;;1488888;39;20113;-60
2021/05/13 00:43:27;;;;;;;17.15;11.23;;;;;;;;;;1488812;39;20044;-61
2021/05/13 00:44:34;;;;;;;16.13;10.88;;;;;;;;;;1488762;39;20268;-60
2021/05/13 00:45:35;;;;;;;15.32;11.88;;;;;;;;;;1488797;39;20036;-60
2021/05/13 00:46:37;;;;;;;18.08;11.68;;;;;;;;;;1488729;39;20029;-61
2021/05/13 00:47:45;;;;;;;18.80;12.43;;;;;;;;;;1488630;39;20109;-62
2021/05/13 00:48:46;;;;;;;16.05;11.25;;;;;;;;;;1488796;39;20029;-61
2021/05/13 00:49:47;;;;;;;16.45;12.10;;;;;;;;;;1488816;39;20040;-60
2021/05/13 00:50:49;;;;;;;16.90;11.82;;;;;;;;;;1488598;39;20032;-61
2021/05/13 00:51:49;;;;;;;15.93;11.30;;;;;;;;;;1488850;39;20024;-61
2021/05/13 00:52:51;;;;;;;15.50;10.73;;;;;;;;;;1488703;39;20295;-60
2021/05/13 00:53:52;;;;;;;16.90;11.38;;;;;;;;;;1488849;39;20028;-61
2021/05/13 00:54:54;;;;;;;17.10;11.98;;;;;;;;;;1488784;39;20032;-60
2021/05/13 00:55:55;;;;;;;16.67;11.32;;;;;;;;;;1488754;39;20028;-61
2021/05/13 00:56:57;;;;;;;16.10;11.45;;;;;;;;;;1488597;39;20494;-61
2021/05/13 00:57:58;;;;;;;17.70;11.00;;;;;;;;;;1488741;39;20028;-61
2021/05/13 00:59:07;;;;;;;17.45;11.75;;;;;;;;;;1488044;40;20305;-61
2021/05/13 01:00:29;;;;;;;15.95;11.63;;;;;;;;;;1488134;40;20093;-61
2021/05/13 01:01:48;;;;;;;15.65;11.18;;;;;;;;;;1488806;39;20032;-60
2021/05/13 01:02:48;;;;;;;16.35;11.77;;;;;;;;;;1488808;39;20036;-61
2021/05/13 01:03:50;;;;;;;16.38;11.50;;;;;;;;;;1488775;39;20349;-61
2021/05/13 01:04:51;;;;;;;15.45;10.95;;;;;;;;;;1488562;39;20029;-61
2021/05/13 01:05:53;;;;;;;15.32;10.68;;;;;;;;;;1488750;39;20032;-62
2021/05/13 01:06:55;;;;;;;15.48;11.23;;;;;;;;;;1488619;39;20040;-61
2021/05/13 01:07:57;;;;;;;18.20;12.13;;;;;;;;;;1488594;39;20389;-60
2021/05/13 01:08:58;;;;;;;16.45;11.80;;;;;;;;;;1488544;39;20410;-60
2021/05/13 01:09:59;;;;;;;17.63;11.38;;;;;;;;;;1488543;39;20028;-61
2021/05/13 01:11:01;;;;;;;16.15;11.70;;;;;;;;;;1488768;39;20035;-60
2021/05/13 01:12:04;;;;;;;17.38;12.10;;;;;;;;;;1488750;39;20031;-61
2021/05/13 01:13:08;;;;;;;16.05;11.70;;;;;;;;;;1488617;39;20039;-61
2021/05/13 01:14:16;;;;;;;16.80;12.00;;;;;;;;;;1488740;39;20044;-61
2021/05/13 01:15:23;;;;;;;16.65;11.55;;;;;;;;;;1488450;39;20384;-60
2021/05/13 01:16:31;;;;;;;17.88;12.30;;;;;;;;;;1488587;39;20388;-61
2021/05/13 01:17:40;;;;;;;18.23;11.82;;;;;;;;;;1488597;39;20036;-61
2021/05/13 01:18:41;;;;;;;16.27;11.23;;;;;;;;;;1488384;39;20318;-62
2021/05/13 01:19:45;;;;;;;18.80;11.73;;;;;;;;;;1488687;39;20185;-60
2021/05/13 01:20:48;;;;;;;17.50;12.45;;;;;;;;;;1488488;39;20025;-61
2021/05/13 01:21:50;;;;;;;18.58;13.43;;;;;;;;;;1488541;39;20088;-60
2021/05/13 01:22:51;;;;;;;18.88;11.85;;;;;;;;;;1488504;39;20388;-61
2021/05/13 01:23:52;;;;;;;16.08;11.80;;;;;;;;;;1488508;39;20032;-61
2021/05/13 01:24:54;;;;;;;19.95;12.73;;;;;;;;;;1488551;39;20029;-60
2021/05/13 01:25:55;;;;;;;19.23;11.98;;;;;;;;;;1488662;39;20039;-60
2021/05/13 01:26:57;;;;;;;18.08;12.88;;;;;;;;;;1488581;39;20043;-60
2021/05/13 01:27:58;;;;;;;21.40;13.07;;;;;;;;;;1488609;39;20037;-60
2021/05/13 01:29:00;;;;;;;18.30;12.30;;;;;;;;;;1488576;39;20043;-60
2021/05/13 01:30:02;;;;;;;16.73;12.75;;;;;;;;;;1488556;39;20327;-60
2021/05/13 01:31:03;;;;;;;18.17;12.70;;;;;;;;;;1488525;39;20024;-60
2021/05/13 01:32:04;;;;;;;17.80;12.15;;;;;;;;;;1488516;39;20033;-60
2021/05/13 01:33:06;;;;;;;19.63;13.07;;;;;;;;;;1488697;39;20032;-60
2021/05/13 01:34:07;;;;;;;15.85;12.02;;;;;;;;;;1488649;39;20024;-60
2021/05/13 01:35:09;;;;;;;17.23;12.15;;;;;;;;;;1488633;39;20025;-60
2021/05/13 01:36:10;;;;;;;16.63;12.13;;;;;;;;;;1488483;39;20392;-60
2021/05/13 01:37:12;;;;;;;17.58;12.55;;;;;;;;;;1488666;39;20028;-61
2021/05/13 01:38:15;;;;;;;17.65;13.10;;;;;;;;;;1488434;39;20114;-60
2021/05/13 01:39:17;;;;;;;18.60;12.20;;;;;;;;;;1488008;40;20055;-60
2021/05/13 01:40:18;;;;;;;17.63;12.20;;;;;;;;;;1488151;40;20032;-62
2021/05/13 01:41:19;;;;;;;16.08;11.77;;;;;;;;;;1488659;39;20032;-60
2021/05/13 01:42:20;;;;;;;18.27;12.25;;;;;;;;;;1488604;39;20032;-60
2021/05/13 01:43:22;;;;;;;15.88;12.00;;;;;;;;;;1488474;39;20036;-60
2021/05/13 01:44:24;;;;;;;17.45;11.80;;;;;;;;;;1488599;39;20032;-60
2021/05/13 01:45:25;;;;;;;17.00;12.73;;;;;;;;;;1488451;39;20021;-61
2021/05/13 01:46:26;;;;;;;19.00;12.68;;;;;;;;;;1488502;39;20032;-60
2021/05/13 01:47:33;;;;;;;16.90;12.98;;;;;;;;;;1488411;39;20277;-61
2021/05/13 01:48:35;;;;;;;18.10;12.07;;;;;;;;;;1488389;39;20042;-61
2021/05/13 01:49:36;;;;;;;17.58;12.10;;;;;;;;;;1488474;39;20399;-61
2021/05/13 01:50:37;;;;;;;18.88;12.00;;;;;;;;;;1488669;39;20028;-61
2021/05/13 01:51:38;;;;;;;17.60;12.68;;;;;;;;;;1488032;40;20032;-61
2021/05/13 01:52:40;;;;;;;18.90;12.68;;;;;;;;;;1488118;40;20059;-61
2021/05/13 01:53:42;;;;;;;17.15;12.02;;;;;;;;;;1488492;39;20268;-60
2021/05/13 01:54:43;;;;;;;16.63;11.68;;;;;;;;;;1488404;39;20035;-60
2021/05/13 01:55:45;;;;;;;17.30;12.52;;;;;;;;;;1488597;39;20032;-61
2021/05/13 01:56:47;;;;;;;18.95;12.02;;;;;;;;;;1488415;39;20051;-60
2021/05/13 01:57:48;;;;;;;16.92;11.57;;;;;;;;;;1488592;39;20025;-61
2021/05/13 01:58:49;;;;;;;18.08;12.00;;;;;;;;;;1488468;39;20040;-60
2021/05/13 01:59:50;;;;;;;20.83;12.68;;;;;;;;;;1488451;39;20032;-62
2021/05/13 02:00:51;;;;;;;18.17;11.82;;;;;;;;;;1488586;39;20032;-61
2021/05/13 02:01:52;;;;;;;18.23;12.60;;;;;;;;;;1488433;39;20032;-61
2021/05/13 02:02:53;;;;;;;17.70;12.18;;;;;;;;;;1488389;39;20035;-60
2021/05/13 02:03:55;;;;;;;15.77;12.05;;;;;;;;;;1488472;39;20036;-60
2021/05/13 02:04:56;;;;;;;14.73;11.30;;;;;;;;;;1488589;39;20047;-61
2021/05/13 02:05:57;;;;;;;19.85;12.68;;;;;;;;;;1488489;39;20035;-60
2021/05/13 02:06:58;;;;;;;18.88;13.10;;;;;;;;;;1488508;39;20380;-60
2021/05/13 02:08:01;;;;;;;19.38;12.68;;;;;;;;;;1488363;39;20114;-60
2021/05/13 02:09:02;;;;;;;17.40;12.52;;;;;;;;;;1488378;39;20380;-62
2021/05/13 02:10:04;;;;;;;18.60;12.90;;;;;;;;;;1488592;39;20035;-60
2021/05/13 02:11:05;;;;;;;20.90;13.88;;;;;;;;;;1488361;39;20414;-60
2021/05/13 02:12:07;;;;;;;19.42;12.10;;;;;;;;;;1488546;39;20024;-61
2021/05/13 02:13:08;;;;;;;17.88;12.48;;;;;;;;;;1488345;39;20392;-61
2021/05/13 02:14:09;;;;;;;17.60;13.52;;;;;;;;;;1488365;39;20028;-61
2021/05/13 02:15:12;;;;;;;19.02;13.40;;;;;;;;;;1488416;39;20028;-60
2021/05/13 02:16:13;;;;;;;21.30;13.52;;;;;;;;;;1488583;39;20033;-61
2021/05/13 02:17:14;;;;;;;19.60;13.35;;;;;;;;;;1488364;39;20040;-61
2021/05/13 02:18:15;;;;;;;18.40;13.18;;;;;;;;;;1488553;39;20121;-60
2021/05/13 02:19:16;;;;;;;18.73;14.13;;;;;;;;;;1488534;39;20057;-60
2021/05/13 02:20:19;;;;;;;20.92;13.45;;;;;;;;;;1488430;39;20380;-62
2021/05/13 02:21:20;;;;;;;24.95;13.93;;;;;;;;;;1488544;39;20033;-61
2021/05/13 02:22:21;;;;;;;19.02;13.48;;;;;;;;;;1488524;39;20392;-60
2021/05/13 02:23:24;;;;;;;18.52;13.63;;;;;;;;;;1488411;39;20411;-62
2021/05/13 02:24:25;;;;;;;21.48;14.23;;;;;;;;;;1488366;39;20388;-60
2021/05/13 02:25:28;;;;;;;21.52;15.98;;;;;;;;;;1488534;39;20028;-61
2021/05/13 02:26:28;;;;;;;21.10;14.55;;;;;;;;;;1488467;39;20108;-61
2021/05/13 02:27:42;;;;;;;18.55;13.32;;;;;;;;;;1489047;39;20059;-61
2021/05/13 02:28:42;;;;;;;21.23;14.77;;;;;;;;;;1488932;39;20064;-60
2021/05/13 02:29:44;;;;;;;22.63;15.02;;;;;;;;;;1489040;39;20032;-60
2021/05/13 02:30:45;;;;;;;22.67;14.43;;;;;;;;;;1489246;39;20031;-60
2021/05/13 02:31:47;;;;;;;20.63;14.13;;;;;;;;;;1489030;39;20037;-60
2021/05/13 02:32:51;;;;;;;20.25;14.02;;;;;;;;;;1489149;39;20035;-60
2021/05/13 02:33:52;;;;;;;19.80;13.20;;;;;;;;;;1489112;39;20296;-59
2021/05/13 02:34:53;;;;;;;23.75;15.27;;;;;;;;;;1489174;39;20039;-60
2021/05/13 02:35:54;;;;;;;21.45;14.98;;;;;;;;;;1489235;39;20290;-61
2021/05/13 02:36:55;;;;;;;21.30;15.05;;;;;;;;;;1489151;39;20032;-60
2021/05/13 02:37:57;;;;;;;18.58;14.05;;;;;;;;;;1489160;39;20045;-61
2021/05/13 02:38:59;;;;;;;22.45;14.90;;;;;;;;;;1489151;39;20032;-60
2021/05/13 02:40:01;;;;;;;21.67;14.70;;;;;;;;;;1488907;39;20043;-61
2021/05/13 02:41:02;;;;;;;20.42;14.77;;;;;;;;;;1489181;39;20068;-62
2021/05/13 02:42:04;;;;;;;22.10;15.02;;;;;;;;;;1489011;39;20051;-61
2021/05/13 02:43:06;;;;;;;20.38;14.02;;;;;;;;;;1489142;39;20036;-61
2021/05/13 02:44:07;;;;;;;19.52;14.10;;;;;;;;;;1488991;39;20273;-60
2021/05/13 02:45:10;;;;;;;20.75;14.60;;;;;;;;;;1488967;39;20379;-60
2021/05/13 02:46:11;;;;;;;22.05;14.60;;;;;;;;;;1489130;39;20039;-60
2021/05/13 02:47:12;;;;;;;21.17;14.70;;;;;;;;;;1489036;39;20020;-60
2021/05/13 02:48:13;;;;;;;21.58;13.77;;;;;;;;;;1488894;39;20367;-60
2021/05/13 02:49:14;;;;;;;20.13;13.95;;;;;;;;;;1489095;39;20035;-60
2021/05/13 02:50:16;;;;;;;18.83;14.20;;;;;;;;;;1489005;39;20300;-60
2021/05/13 02:51:17;;;;;;;22.83;14.40;;;;;;;;;;1488989;39;20039;-60
2021/05/13 02:52:18;;;;;;;23.70;14.05;;;;;;;;;;1488912;39;20031;-60
2021/05/13 02:53:19;;;;;;;20.40;14.00;;;;;;;;;;1488955;39;20403;-60
2021/05/13 02:54:22;;;;;;;19.40;14.38;;;;;;;;;;1488908;39;20032;-60
2021/05/13 02:55:23;;;;;;;20.17;13.60;;;;;;;;;;1488947;39;20028;-60
2021/05/13 02:56:24;;;;;;;18.67;14.00;;;;;;;;;;1489147;39;20069;-60
2021/05/13 02:57:25;;;;;;;22.40;15.90;;;;;;;;;;1488936;39;20032;-60
2021/05/13 02:58:27;;;;;;;22.15;14.95;;;;;;;;;;1489033;39;20038;-60
2021/05/13 02:59:33;;;;;;;21.45;14.45;;;;;;;;;;1488902;39;20277;-60
2021/05/13 03:00:36;;;;;;;19.63;13.80;;;;;;;;;;1488457;40;20311;-61
2021/05/13 03:01:37;;;;;;;21.63;14.65;;;;;;;;;;1488662;40;20119;-61
2021/05/13 03:02:38;;;;;;;20.02;15.20;;;;;;;;;;1489041;39;20035;-60
2021/05/13 03:03:39;;;;;;;20.70;14.02;;;;;;;;;;1488884;39;20034;-60
2021/05/13 03:04:41;;;;;;;22.58;14.60;;;;;;;;;;1488913;39;20032;-60
2021/05/13 03:05:42;;;;;;;20.38;14.40;;;;;;;;;;1489075;39;20032;-60
2021/05/13 03:06:44;;;;;;;21.92;14.57;;;;;;;;;;1488912;39;20416;-60
2021/05/13 03:07:57;;;;;;;21.65;14.25;;;;;;;;;;1488937;39;20036;-60
2021/05/13 03:08:59;;;;;;;19.00;13.05;;;;;;;;;;1489118;39;20040;-60
2021/05/13 03:10:03;;;;;;;22.02;14.73;;;;;;;;;;1489115;39;20029;-60
2021/05/13 03:11:04;;;;;;;22.00;15.27;;;;;;;;;;1488831;39;20035;-60
2021/05/13 03:12:06;;;;;;;22.52;15.20;;;;;;;;;;1488903;39;20032;-60
2021/05/13 03:13:08;;;;;;;21.98;14.32;;;;;;;;;;1488876;39;20033;-60
2021/05/13 03:14:10;;;;;;;19.65;14.00;;;;;;;;;;1488949;39;20036;-60
2021/05/13 03:15:11;;;;;;;21.42;14.45;;;;;;;;;;1488903;39;20035;-59
2021/05/13 03:16:13;;;;;;;20.55;14.15;;;;;;;;;;1489060;39;20038;-60
2021/05/13 03:17:14;;;;;;;21.05;13.88;;;;;;;;;;1488865;39;20379;-60
2021/05/13 03:18:15;;;;;;;24.58;15.50;;;;;;;;;;1488842;39;20028;-60
2021/05/13 03:19:21;;;;;;;22.20;14.68;;;;;;;;;;1489067;39;20044;-61
2021/05/13 03:20:26;;;;;;;20.83;13.90;;;;;;;;;;1488836;39;20392;-60
2021/05/13 03:21:31;;;;;;;22.15;14.38;;;;;;;;;;1488844;39;20028;-60
2021/05/13 03:22:33;;;;;;;18.33;13.50;;;;;;;;;;1488890;39;20388;-59
2021/05/13 03:23:42;;;;;;;19.27;13.98;;;;;;;;;;1489042;39;20040;-60
2021/05/13 03:24:47;;;;;;;20.52;13.43;;;;;;;;;;1489151;39;20038;-60
2021/05/13 03:25:56;;;;;;;22.55;14.02;;;;;;;;;;1488864;39;20392;-60
2021/05/13 03:27:03;;;;;;;19.90;13.85;;;;;;;;;;1489121;39;20025;-60
2021/05/13 03:28:09;;;;;;;18.52;13.48;;;;;;;;;;1489025;39;20105;-60
2021/05/13 03:29:09;;;;;;;21.35;14.20;;;;;;;;;;1488961;39;20034;-60
2021/05/13 03:30:12;;;;;;;18.67;13.18;;;;;;;;;;1488872;39;20028;-60
2021/05/13 03:31:13;;;;;;;19.70;13.85;;;;;;;;;;1488299;40;20025;-60
2021/05/13 03:32:14;;;;;;;21.10;14.23;;;;;;;;;;1488358;40;20090;-60
2021/05/13 03:33:15;;;;;;;19.20;13.45;;;;;;;;;;1489015;39;20033;-59
2021/05/13 03:34:16;;;;;;;20.35;14.80;;;;;;;;;;1488867;39;20039;-59
2021/05/13 03:35:17;;;;;;;23.10;15.32;;;;;;;;;;1488954;39;20028;-60
2021/05/13 03:36:19;;;;;;;20.23;13.48;;;;;;;;;;1489025;39;20036;-60
2021/05/13 03:37:20;;;;;;;20.20;13.50;;;;;;;;;;1488856;39;20024;-60
2021/05/13 03:38:21;;;;;;;20.05;13.68;;;;;;;;;;1488779;39;20028;-61
2021/05/13 03:39:22;;;;;;;19.95;13.60;;;;;;;;;;1488820;39;20035;-60
2021/05/13 03:40:23;;;;;;;19.48;13.70;;;;;;;;;;1488942;39;20035;-61
2021/05/13 03:41:25;;;;;;;19.83;13.45;;;;;;;;;;1488975;39;20029;-61
2021/05/13 03:42:26;;;;;;;19.02;14.15;;;;;;;;;;1489037;39;20079;-61
2021/05/13 03:43:28;;;;;;;19.67;13.43;;;;;;;;;;1489023;39;20032;-60
2021/05/13 03:44:29;;;;;;;20.02;13.55;;;;;;;;;;1488803;39;20035;-60
2021/05/13 03:45:30;;;;;;;19.48;13.30;;;;;;;;;;1488982;39;20031;-60
2021/05/13 03:46:31;;;;;;;20.60;13.23;;;;;;;;;;1488806;39;20030;-60
2021/05/13 03:47:32;;;;;;;18.95;13.35;;;;;;;;;;1488777;39;20039;-60
2021/05/13 03:48:33;;;;;;;23.23;13.50;;;;;;;;;;1488760;39;20036;-60
2021/05/13 03:49:34;;;;;;;17.25;12.85;;;;;;;;;;1488779;39;20039;-60
2021/05/13 03:50:37;;;;;;;18.95;13.07;;;;;;;;;;1488782;39;20059;-60
2021/05/13 03:51:38;;;;;;;17.92;13.20;;;;;;;;;;1488778;39;20090;-60
2021/05/13 03:52:39;;;;;;;18.27;12.70;;;;;;;;;;1488816;39;20040;-60
2021/05/13 03:53:40;;;;;;;20.70;13.27;;;;;;;;;;1488771;39;20044;-60
2021/05/13 03:54:41;;;;;;;20.30;13.40;;;;;;;;;;1489059;39;20032;-60
2021/05/13 03:55:45;;;;;;;18.65;13.25;;;;;;;;;;1489002;39;20032;-60
2021/05/13 03:56:47;;;;;;;19.65;13.05;;;;;;;;;;1488749;39;20036;-60
2021/05/13 03:57:49;;;;;;;22.02;13.40;;;;;;;;;;1488735;39;20031;-60
2021/05/13 03:58:54;;;;;;;16.70;12.75;;;;;;;;;;1488285;40;20040;-60
2021/05/13 03:59:58;;;;;;;17.75;12.35;;;;;;;;;;1488333;40;20035;-60
2021/05/13 04:01:10;;;;;;;19.08;13.10;;;;;;;;;;1488709;39;20025;-60
2021/05/13 04:02:23;;;;;;;18.10;12.90;;;;;;;;;;1488774;39;20035;-60
2021/05/13 04:03:24;;;;;;;16.85;12.63;;;;;;;;;;1488961;39;20068;-60
2021/05/13 04:04:25;;;;;;;18.23;12.57;;;;;;;;;;1488925;39;20273;-60
2021/05/13 04:05:26;;;;;;;17.80;13.30;;;;;;;;;;1488931;39;20036;-60
2021/05/13 04:06:27;;;;;;;20.92;13.18;;;;;;;;;;1488772;39;20024;-60
2021/05/13 04:07:30;;;;;;;20.20;12.68;;;;;;;;;;1488738;39;20392;-60
2021/05/13 04:08:31;;;;;;;17.23;11.90;;;;;;;;;;1488874;39;20117;-60
2021/05/13 04:09:33;;;;;;;18.85;12.57;;;;;;;;;;1488688;39;20028;-60
2021/05/13 04:10:34;;;;;;;18.83;12.77;;;;;;;;;;1488215;40;20392;-60
2021/05/13 04:11:35;;;;;;;20.58;13.30;;;;;;;;;;1488372;40;20028;-60
2021/05/13 04:12:38;;;;;;;18.98;12.95;;;;;;;;;;1488853;39;20035;-60
2021/05/13 04:13:40;;;;;;;20.17;13.63;;;;;;;;;;1488233;40;20048;-60
2021/05/13 04:14:42;;;;;;;17.95;13.07;;;;;;;;;;1488416;40;20028;-60
2021/05/13 04:15:47;;;;;;;19.20;13.40;;;;;;;;;;1488329;40;20024;-60
2021/05/13 04:16:54;;;;;;;18.23;12.10;;;;;;;;;;1488585;40;20033;-60
2021/05/13 04:17:55;;;;;;;19.02;12.75;;;;;;;;;;1489043;39;20048;-60
2021/05/13 04:18:56;;;;;;;21.58;13.13;;;;;;;;;;1488546;39;20413;-60
2021/05/13 04:19:57;;;;;;;18.48;12.63;;;;;;;;;;1488763;39;20032;-60
2021/05/13 04:20:58;;;;;;;19.25;12.73;;;;;;;;;;1488863;39;20024;-60
2021/05/13 04:22:00;;;;;;;19.85;12.57;;;;;;;;;;1488893;39;20036;-60
2021/05/13 04:23:01;;;;;;;19.38;12.38;;;;;;;;;;1488959;39;20032;-61
2021/05/13 04:24:02;;;;;;;17.38;12.38;;;;;;;;;;1488917;39;20028;-61
2021/05/13 04:25:06;;;;;;;19.00;13.40;;;;;;;;;;1488682;39;20032;-60
2021/05/13 04:26:07;;;;;;;19.60;12.85;;;;;;;;;;1488876;39;20032;-62
2021/05/13 04:27:08;;;;;;;18.35;12.43;;;;;;;;;;1488988;39;20043;-61
2021/05/13 04:28:10;;;;;;;20.13;13.35;;;;;;;;;;1488806;39;20028;-61
2021/05/13 04:29:12;;;;;;;16.77;11.30;;;;;;;;;;1488875;39;20064;-60
2021/05/13 04:30:14;;;;;;;19.08;12.80;;;;;;;;;;1488877;39;20036;-60
2021/05/13 04:31:15;;;;;;;19.02;11.90;;;;;;;;;;1488755;39;20109;-60
2021/05/13 04:32:16;;;;;;;17.65;12.75;;;;;;;;;;1488768;39;20109;-60
2021/05/13 04:33:17;;;;;;;18.23;12.70;;;;;;;;;;1488840;39;20031;-61
2021/05/13 04:34:18;;;;;;;18.92;12.90;;;;;;;;;;1488955;39;20287;-60
2021/05/13 04:35:19;;;;;;;17.25;12.60;;;;;;;;;;1488657;39;20028;-61
2021/05/13 04:36:21;;;;;;;19.20;12.43;;;;;;;;;;1488704;39;20066;-61
2021/05/13 04:37:21;;;;;;;20.17;13.15;;;;;;;;;;1488691;39;20300;-61
2021/05/13 04:38:23;;;;;;;18.63;11.98;;;;;;;;;;1488772;39;20029;-60
2021/05/13 04:39:23;;;;;;;18.50;12.35;;;;;;;;;;1488691;39;20373;-60
2021/05/13 04:40:25;;;;;;;20.35;13.10;;;;;;;;;;1488703;39;20032;-60
2021/05/13 04:41:29;;;;;;;18.50;13.75;;;;;;;;;;1488709;39;20033;-60
2021/05/13 04:42:31;;;;;;;20.27;12.43;;;;;;;;;;1488868;39;20112;-60
2021/05/13 04:43:33;;;;;;;15.45;12.07;;;;;;;;;;1488848;39;20117;-60
2021/05/13 04:44:36;;;;;;;18.10;12.70;;;;;;;;;;1488798;39;20039;-60
2021/05/13 04:45:37;;;;;;;16.38;11.43;;;;;;;;;;1488748;39;20025;-60
2021/05/13 04:46:38;;;;;;;19.35;11.98;;;;;;;;;;1488845;39;20028;-60
2021/05/13 04:48:04;;;;;;;16.23;12.18;;;;;;;;;;1488722;39;20035;-60
2021/05/13 04:49:18;;;;;;;20.77;12.77;;;;;;;;;;1488354;40;20064;-60
2021/05/13 04:50:19;;;;;;;21.52;12.52;;;;;;;;;;1488207;40;20024;-60
2021/05/13 04:51:22;;;;;;;19.20;12.73;;;;;;;;;;1488802;39;20032;-60
2021/05/13 04:52:24;;;;;;;18.58;11.98;;;;;;;;;;1488654;39;20032;-64
2021/05/13 04:53:25;;;;;;;18.90;11.65;;;;;;;;;;1488624;39;20020;-60
2021/05/13 04:54:26;;;;;;;18.35;12.32;;;;;;;;;;1488673;39;20040;-61
2021/05/13 04:55:28;;;;;;;17.63;12.25;;;;;;;;;;1488812;39;20024;-60
2021/05/13 04:56:30;;;;;;;17.35;11.95;;;;;;;;;;1488616;39;20307;-60
2021/05/13 04:57:32;;;;;;;17.75;12.38;;;;;;;;;;1488620;39;20141;-61
2021/05/13 04:58:34;;;;;;;18.00;12.85;;;;;;;;;;1488755;39;20032;-61
2021/05/13 04:59:35;;;;;;;17.60;11.95;;;;;;;;;;1488799;39;20032;-60
2021/05/13 05:00:36;;;;;;;17.55;11.77;;;;;;;;;;1488493;39;20032;-61
2021/05/13 05:01:37;;;;;;;21.30;12.68;;;;;;;;;;1488615;39;20403;-60
2021/05/13 05:02:38;;;;;;;17.80;12.50;;;;;;;;;;1488607;39;20469;-61
2021/05/13 05:03:39;;;;;;;19.75;12.50;;;;;;;;;;1488827;39;20120;-60
2021/05/13 05:04:40;;;;;;;16.58;11.88;;;;;;;;;;1488790;39;20112;-62
2021/05/13 05:05:42;;;;;;;21.00;12.32;;;;;;;;;;1488199;40;20431;-61
2021/05/13 05:06:42;;;;;;;18.13;12.35;;;;;;;;;;1488081;40;20032;-61
2021/05/13 05:07:44;;;;;;;17.10;12.07;;;;;;;;;;1488722;39;20028;-61
2021/05/13 05:08:44;;;;;;;19.98;13.07;;;;;;;;;;1488540;39;20032;-62
2021/05/13 05:09:46;;;;;;;18.15;13.52;;;;;;;;;;1488772;39;20032;-62
2021/05/13 05:10:47;;;;;;;18.30;12.80;;;;;;;;;;1488602;39;20303;-61
2021/05/13 05:11:48;;;;;;;20.30;13.98;;;;;;;;;;1488569;39;20032;-61
2021/05/13 05:12:49;;;;;;;19.02;12.07;;;;;;;;;;1488718;39;20028;-61
2021/05/13 05:13:51;;;;;;;16.27;12.45;;;;;;;;;;1488761;39;20028;-61
2021/05/13 05:14:52;;;;;;;16.35;12.32;;;;;;;;;;1488794;39;20036;-62
2021/05/13 05:15:53;;;;;;;19.02;13.10;;;;;;;;;;1488627;39;20304;-61
2021/05/13 05:16:54;;;;;;;16.27;11.98;;;;;;;;;;1488550;39;20377;-61
2021/05/13 05:17:55;;;;;;;18.27;13.32;;;;;;;;;;1488580;39;20114;-61
2021/05/13 05:18:56;;;;;;;18.40;12.02;;;;;;;;;;1488646;39;20113;-62
2021/05/13 05:19:57;;;;;;;17.50;12.15;;;;;;;;;;1488638;39;20390;-62
2021/05/13 05:20:58;;;;;;;21.85;13.80;;;;;;;;;;1488664;39;20028;-61
2021/05/13 05:22:00;;;;;;;18.00;12.38;;;;;;;;;;1488621;39;20028;-61
2021/05/13 05:23:00;;;;;;;20.17;13.13;;;;;;;;;;1488032;40;20386;-61
2021/05/13 05:24:02;;;;;;;17.17;12.35;;;;;;;;;;1488131;40;20036;-62
2021/05/13 05:25:04;;;;;;;17.42;12.85;;;;;;;;;;1488731;39;20024;-61
2021/05/13 05:26:06;;;;;;;18.42;12.98;;;;;;;;;;1488731;39;20028;-61
2021/05/13 05:27:07;;;;;;;19.65;13.52;;;;;;;;;;1488539;39;20024;-61
2021/05/13 05:28:09;;;;;;;17.60;13.15;;;;;;;;;;1488710;39;20032;-61
2021/05/13 05:29:11;;;;;;;20.40;13.25;;;;;;;;;;1488700;39;20035;-62
2021/05/13 05:30:14;;;;;;;18.38;12.18;;;;;;;;;;1488684;39;20021;-62
2021/05/13 05:31:14;;;;;;;19.70;13.45;;;;;;;;;;1488691;39;20035;-61
2021/05/13 05:32:16;;;;;;;18.55;12.27;;;;;;;;;;1488682;39;20043;-62
2021/05/13 05:33:17;;;;;;;19.02;12.95;;;;;;;;;;1488503;39;20031;-61
2021/05/13 05:34:18;;;;;;;16.88;12.98;;;;;;;;;;1488654;39;20028;-62
2021/05/13 05:35:19;;;;;;;17.55;13.23;;;;;;;;;;1488524;39;20121;-61
2021/05/13 05:36:23;;;;;;;19.30;13.60;;;;;;;;;;1488663;39;20028;-62
2021/05/13 05:37:24;;;;;;;20.20;13.15;;;;;;;;;;1488525;39;20035;-60
2021/05/13 05:38:26;;;;;;;17.80;12.32;;;;;;;;;;1488546;39;20053;-61
2021/05/13 05:39:26;;;;;;;18.90;13.07;;;;;;;;;;1488690;39;20031;-61
2021/05/13 05:40:28;;;;;;;18.98;12.85;;;;;;;;;;1488637;39;20028;-61
2021/05/13 05:41:29;;;;;;;19.45;13.57;;;;;;;;;;1488486;39;20295;-60
2021/05/13 05:42:30;;;;;;;18.25;13.38;;;;;;;;;;1488567;39;20032;-61
2021/05/13 05:43:31;;;;;;;21.45;14.25;;;;;;;;;;1488633;39;20028;-61
2021/05/13 05:44:33;;;;;;;19.20;13.85;;;;;;;;;;1488491;39;20035;-61
2021/05/13 05:45:34;;;;;;;20.48;13.60;;;;;;;;;;1488497;39;20035;-62
2021/05/13 05:46:36;;;;;;;19.10;12.60;;;;;;;;;;1488532;39;20024;-61
2021/05/13 05:47:36;;;;;;;20.75;14.07;;;;;;;;;;1488449;39;20035;-61
2021/05/13 05:48:38;;;;;;;22.17;14.32;;;;;;;;;;1488396;39;20047;-61
2021/05/13 05:49:39;;;;;;;18.40;14.07;;;;;;;;;;1488479;39;20109;-61
2021/05/13 05:50:42;;;;;;;21.00;13.30;;;;;;;;;;1488647;39;20047;-61
2021/05/13 05:51:43;;;;;;;20.92;13.18;;;;;;;;;;1488497;39;20067;-60
2021/05/13 05:52:44;;;;;;;20.25;13.75;;;;;;;;;;1488430;39;20031;-60
2021/05/13 05:53:45;;;;;;;20.75;13.93;;;;;;;;;;1488427;39;20032;-61
2021/05/13 05:54:46;;;;;;;19.67;14.45;;;;;;;;;;1487915;40;20050;-60
2021/05/13 05:55:47;;;;;;;22.50;14.23;;;;;;;;;;1488026;40;20033;-60
2021/05/13 05:56:48;;;;;;;18.38;13.68;;;;;;;;;;1488522;39;20041;-61
2021/05/13 05:57:49;;;;;;;19.98;13.60;;;;;;;;;;1488513;39;20028;-61
2021/05/13 05:58:51;;;;;;;19.20;13.60;;;;;;;;;;1488569;39;20402;-62
2021/05/13 05:59:52;;;;;;;23.02;14.13;;;;;;;;;;1488397;39;20020;-61
2021/05/13 06:00:54;;;;;;;20.10;13.52;;;;;;;;;;1488380;39;20384;-61